Time;durP1;ratioP1;P1;durP2;ratioP2;P2;SDS_P1;SDS_P2;PMS_P1;PMS_P2;Temp;Humidity;BMP_temperature;BMP_pressure;BME280_temperature;BME280_humidity;BME280_pressure;Samples;Min_cycle;Max_cycle;Signal;HPM_P1;HPM_P2
2023/10/20 00:15:18;;;;;;;22.35;15.05;;;;;;;21.41;58.87;98539.06;39960938;29;20570;-68
2023/10/20 00:35:18;;;;;;;19.73;14.10;;;;;;;21.38;58.94;98515.72;39965129;29;20045;-68
2023/10/20 00:55:20;;;;;;;20.13;13.68;;;;;;;21.31;58.68;98467.34;39951991;29;20065;-68
2023/10/20 01:15:21;;;;;;;19.48;13.05;;;;;;;21.31;58.99;98436.56;39949017;29;20492;-70
2023/10/20 01:35:21;;;;;;;18.23;12.32;;;;;;;21.29;58.88;98425.41;39947837;29;20041;-68
2023/10/20 01:55:22;;;;;;;17.95;12.50;;;;;;;21.30;59.29;98381.47;39954987;29;20050;-68
2023/10/20 02:15:22;;;;;;;16.45;11.95;;;;;;;21.26;59.02;98371.28;39940035;29;20082;-68
2023/10/20 02:35:23;;;;;;;16.27;11.77;;;;;;;21.24;59.26;98354.84;39961088;29;20814;-69
2023/10/20 02:55:25;;;;;;;16.20;11.70;;;;;;;21.21;58.74;98362.25;39976722;29;20374;-68
2023/10/20 03:15:26;;;;;;;15.65;10.80;;;;;;;21.09;58.98;98327.56;39966030;29;20052;-69
2023/10/20 03:35:27;;;;;;;14.77;10.90;;;;;;;21.17;58.66;98348.59;39959655;29;20050;-68
2023/10/20 03:55:29;;;;;;;15.27;10.95;;;;;;;21.16;59.04;98336.41;39981350;29;20046;-71
2023/10/20 04:15:35;;;;;;;16.20;11.27;;;;;;;21.41;57.91;98302.13;39939020;29;20544;-73
2023/10/20 05:16:14;;;;;;;28.02;15.65;;;;;;;21.31;58.93;98306.78;39932775;29;20141;-74
2023/10/20 05:36:15;;;;;;;24.58;13.95;;;;;;;21.05;59.68;98281.53;39933456;29;20045;-75
2023/10/20 05:56:16;;;;;;;24.33;12.45;;;;;;;20.94;59.74;98294.03;39940177;29;20069;-77
2023/10/20 06:16:20;;;;;;;20.67;11.55;;;;;;;21.17;59.51;98327.53;39955724;29;20099;-78
2023/10/20 06:36:25;;;;;;;18.95;11.25;;;;;;;21.18;59.43;98317.81;39962734;29;20062;-78
2023/10/20 06:56:26;;;;;;;19.33;10.68;;;;;;;21.13;58.79;98294.66;39952724;29;20062;-77
2023/10/20 07:16:32;;;;;;;17.20;9.90;;;;;;;21.19;59.41;98314.22;39960931;29;20042;-81
2023/10/20 07:36:32;;;;;;;16.27;9.57;;;;;;;21.11;59.22;98302.72;39992366;29;20058;-78
2023/10/20 07:56:34;;;;;;;16.50;9.80;;;;;;;21.01;59.13;98273.16;39999612;29;20050;-79
2023/10/20 08:16:34;;;;;;;17.73;8.57;;;;;;;21.17;59.10;98285.44;40001800;29;20046;-78
2023/10/20 08:36:36;;;;;;;12.70;8.45;;;;;;;21.33;58.93;98287.19;39981172;29;20145;-78
2023/10/20 08:56:36;;;;;;;10.75;8.15;;;;;;;21.44;58.20;98299.16;40011145;29;20700;-79
2023/10/20 09:16:38;;;;;;;12.18;7.65;;;;;;;21.30;57.93;98273.53;39999152;29;20050;-81
2023/10/20 09:36:43;;;;;;;11.82;7.40;;;;;;;21.58;56.97;98269.50;39989326;29;20141;-78
2023/10/20 09:56:44;;;;;;;11.75;7.43;;;;;;;21.30;56.92;98220.88;39964667;29;20086;-82
2023/10/20 10:16:55;;;;;;;12.52;6.78;;;;;;;21.34;56.94;98201.16;39959245;29;20050;-82
2023/10/20 10:36:57;;;;;;;12.32;6.63;;;;;;;21.52;57.19;98228.03;39951565;29;20054;-81
2023/10/20 10:57:02;;;;;;;9.93;6.47;;;;;;;21.85;56.97;98225.19;39965964;29;20069;-79
2023/10/20 11:17:04;;;;;;;10.68;6.53;;;;;;;21.79;56.57;98152.16;40013073;29;20485;-81
2023/10/20 11:37:05;;;;;;;18.30;5.38;;;;;;;21.99;54.74;98096.31;39986445;29;20066;-90
2023/10/20 11:57:07;;;;;;;15.45;5.25;;;;;;;22.08;53.43;98116.28;40009778;29;20059;-84
2023/10/20 12:17:10;;;;;;;16.35;4.68;;;;;;;22.35;51.85;98153.59;40015063;29;20085;-84
2023/10/20 12:37:10;;;;;;;14.88;5.40;;;;;;;22.06;53.45;98144.66;39957389;29;20708;-80
2023/10/20 12:57:16;;;;;;;18.77;5.93;;;;;;;22.12;52.08;98111.50;39962290;29;20054;-80
2023/10/20 13:17:16;;;;;;;;;;;;;;;22.07;52.77;98081.22;39935047;29;20068;-85
2023/10/20 13:37:17;;;;;;;21.37;4.97;;;;;;;22.19;50.62;98096.59;39971090;29;19925;-86
2023/10/20 13:57:17;;;;;;;23.48;6.60;;;;;;;21.82;53.49;98087.75;39950641;29;20302;-79
2023/10/20 14:17:18;;;;;;;13.35;6.82;;;;;;;21.83;54.17;98108.63;39967019;29;20407;-77
2023/10/20 14:37:18;;;;;;;22.33;8.80;;;;;;;22.16;53.78;98105.69;39985928;29;21068;-71
2023/10/20 14:57:19;;;;;;;25.90;10.27;;;;;;;22.15;54.81;98125.13;39985321;29;20057;-75
2023/10/20 15:17:21;;;;;;;29.85;10.82;;;;;;;21.95;56.56;98114.31;39994355;29;20042;-83
2023/10/20 15:37:24;;;;;;;32.72;9.75;;;;;;;22.10;57.63;98150.41;39940051;29;20054;-79
2023/10/20 15:57:25;;;;;;;29.77;10.05;;;;;;;21.99;58.19;98165.63;39978392;29;20110;-86
2023/10/20 16:17:32;;;;;;;27.02;9.07;;;;;;;22.25;58.21;98180.22;39983899;29;20099;-81
2023/10/20 16:37:34;;;;;;;22.55;9.63;;;;;;;22.15;58.04;98158.59;39963285;29;20046;-85
2023/10/20 16:57:35;;;;;;;30.63;11.68;;;;;;;22.45;59.75;98208.72;39936239;29;20050;-74
2023/10/20 17:17:36;;;;;;;31.33;17.75;;;;;;;22.56;60.22;98216.22;39944406;29;20769;-75
2023/10/20 17:37:36;;;;;;;32.33;16.17;;;;;;;22.35;59.66;98228.25;39926786;29;20416;-74
2023/10/20 17:57:38;;;;;;;31.67;15.70;;;;;;;22.46;59.83;98250.78;39914860;29;20512;-75
2023/10/20 18:17:39;;;;;;;30.17;13.73;;;;;;;22.45;59.30;98253.56;39928416;29;20046;-77
2023/10/20 18:37:40;;;;;;;45.15;13.68;;;;;;;22.17;59.82;98243.59;39948313;29;20061;-78
2023/10/20 18:57:41;;;;;;;25.45;12.95;;;;;;;22.28;59.72;98274.78;39942305;29;20062;-76
2023/10/20 19:17:44;;;;;;;20.90;11.98;;;;;;;22.22;59.68;98294.75;39945602;29;20069;-71
2023/10/20 19:37:45;;;;;;;19.98;11.07;;;;;;;22.10;59.92;98309.34;39975694;29;20500;-72
2023/10/20 19:57:47;;;;;;;16.88;10.88;;;;;;;22.01;60.21;98324.41;39982980;29;20053;-73
2023/10/20 20:17:47;;;;;;;16.67;9.45;;;;;;;22.04;59.68;98360.94;39972330;29;20137;-75
2023/10/20 20:37:48;;;;;;;19.48;9.85;;;;;;;21.97;59.55;98389.00;39985523;29;20077;-75
2023/10/20 20:57:51;;;;;;;16.58;9.18;;;;;;;21.89;60.70;98392.47;39966620;29;20142;-71
2023/10/20 21:17:51;;;;;;;15.65;9.10;;;;;;;21.94;59.73;98412.22;39942995;29;20752;-72
2023/10/20 21:37:52;;;;;;;13.90;9.18;;;;;;;21.88;59.77;98409.28;39946971;29;20110;-73
2023/10/20 21:57:52;;;;;;;13.77;8.50;;;;;;;21.66;60.09;98381.06;39947746;29;20573;-74
2023/10/20 22:17:52;;;;;;;12.98;7.93;;;;;;;21.86;61.31;98424.44;39946255;29;20042;-70
2023/10/20 22:37:53;;;;;;;18.38;8.10;;;;;;;21.83;60.99;98439.78;39951214;29;20046;-72
2023/10/20 22:57:53;;;;;;;13.38;8.00;;;;;;;21.82;60.98;98432.84;39971034;29;20054;-74
2023/10/20 23:17:54;;;;;;;12.70;7.53;;;;;;;21.77;61.11;98443.91;39975037;29;20389;-73
2023/10/20 23:37:54;;;;;;;11.57;7.70;;;;;;;21.73;61.07;98438.16;39965533;29;20050;-73
2023/10/20 23:57:55;;;;;;;9.10;6.70;;;;;;;21.73;61.09;98477.66;39964873;29;20577;-73
